Time;durP1;ratioP1;P1;durP2;ratioP2;P2;SDS_P1;SDS_P2;PMS_P1;PMS_P2;Temp;Humidity;BMP_temperature;BMP_pressure;BME280_temperature;BME280_humidity;BME280_pressure;Samples;Min_cycle;Max_cycle;Signal;HPM_P1;HPM_P2
2023/01/25 08:58:55;;;;;;;3.80;2.20;;;21.70;45.00;;;;;;5080384;27;21062;-38
2023/01/25 09:01:22;;;;;;;6.00;2.80;;;21.40;45.80;;;;;;5065907;28;20203;-44
2023/01/25 09:03:48;;;;;;;4.83;2.97;;;21.30;45.80;;;;;;5063550;28;20199;-36
2023/01/25 09:06:15;;;;;;;5.93;2.63;;;21.30;45.40;;;;;;5062490;28;20216;-43
2023/01/25 09:08:41;;;;;;;5.13;2.90;;;21.20;46.50;;;;;;5057963;28;20370;-41
2023/01/25 09:11:07;;;;;;;6.22;2.63;;;21.20;47.20;;;;;;5065872;28;20201;-48
2023/01/25 09:13:34;;;;;;;6.03;2.33;;;21.20;47.20;;;;;;5066510;28;20207;-45
2023/01/25 09:16:00;;;;;;;6.38;3.67;;;21.10;47.30;;;;;;5066453;28;20661;-47
2023/01/25 09:18:27;;;;;;;8.80;5.40;;;20.70;48.00;;;;;;5061747;28;20240;-46
2023/01/25 09:20:53;;;;;;;6.53;4.37;;;19.50;45.60;;;;;;5014485;28;20226;-46
2023/01/25 09:23:22;;;;;;;8.05;4.25;;;19.50;49.70;;;;;;5024309;28;20222;-48
2023/01/25 09:25:49;;;;;;;4.30;3.63;;;20.10;41.30;;;;;;5024294;28;20231;-43
2023/01/25 09:28:15;;;;;;;3.63;3.22;;;20.50;42.60;;;;;;5023981;28;20732;-46
2023/01/25 09:30:41;;;;;;;4.90;3.20;;;20.70;42.80;;;;;;5013985;28;20210;-46
2023/01/25 09:33:08;;;;;;;4.53;2.63;;;20.90;43.60;;;;;;5024230;28;20225;-43
2023/01/25 09:35:36;;;;;;;3.95;2.78;;;21.00;43.90;;;;;;5023283;28;20644;-43
2023/01/25 09:38:03;;;;;;;3.50;2.80;;;21.00;44.20;;;;;;5021242;28;20300;-40
2023/01/25 09:40:29;;;;;;;6.45;2.88;;;21.10;44.50;;;;;;5021375;28;20198;-47
2023/01/25 09:42:56;;;;;;;4.28;2.50;;;21.10;44.70;;;;;;5024642;28;20206;-50
2023/01/25 09:45:23;;;;;;;2.40;2.17;;;21.10;44.90;;;;;;5025601;28;20203;-45
2023/01/25 09:47:49;;;;;;;2.58;2.38;;;21.10;45.10;;;;;;5025084;28;20752;-46
2023/01/25 09:50:15;;;;;;;2.90;2.15;;;21.20;44.70;;;;;;5016191;28;20226;-40
2023/01/25 09:52:42;;;;;;;4.38;2.30;;;21.30;44.70;;;;;;5027481;28;20202;-41
2023/01/25 09:55:08;;;;;;;4.63;2.30;;;21.50;44.80;;;;;;5019066;28;20207;-42
2023/01/25 09:57:35;;;;;;;2.97;2.30;;;21.60;44.40;;;;;;5016429;28;20329;-48
2023/01/25 10:00:01;;;;;;;3.78;1.98;;;21.70;45.60;;;;;;5024567;28;20258;-50
2023/01/25 10:02:27;;;;;;;4.35;2.15;;;21.80;44.20;;;;;;5015900;28;20290;-29
2023/01/25 10:04:54;;;;;;;3.83;2.53;;;21.80;44.20;;;;;;5019236;28;20535;-49
2023/01/25 10:07:21;;;;;;;3.40;2.13;;;;;;;;;;5013513;28;20206;-41
2023/01/25 10:09:47;;;;;;;8.05;1.88;;;22.20;43.20;;;;;;5010487;28;20244;-45
2023/01/25 10:12:14;;;;;;;5.22;2.38;;;21.90;45.80;;;;;;5006706;28;20826;-45
2023/01/25 10:14:40;;;;;;;4.22;2.38;;;21.70;44.40;;;;;;5009364;28;20573;-44
2023/01/25 10:17:07;;;;;;;2.30;1.98;;;21.50;45.00;;;;;;5011797;28;20223;-44
2023/01/25 10:19:34;;;;;;;3.45;2.10;;;21.40;45.40;;;;;;4994661;28;20223;-45
2023/01/25 10:22:00;;;;;;;2.90;1.85;;;21.30;45.30;;;;;;4994369;28;20207;-47
2023/01/25 10:24:27;;;;;;;5.53;2.00;;;21.20;45.30;;;;;;4993873;28;20671;-39
2023/01/25 10:26:53;;;;;;;3.20;2.20;;;21.20;45.60;;;;;;5004318;28;20217;-40
2023/01/25 10:29:19;;;;;;;3.78;2.10;;;21.20;45.60;;;;;;5013398;28;20234;-42
2023/01/25 10:31:47;;;;;;;2.63;1.80;;;21.20;45.60;;;;;;4993796;28;20218;-50
2023/01/25 10:34:14;;;;;;;2.50;2.17;;;21.20;45.60;;;;;;4993570;28;20255;-45
2023/01/25 10:36:40;;;;;;;2.97;2.30;;;21.20;45.60;;;;;;4993850;28;20215;-38
2023/01/25 10:39:07;;;;;;;2.53;2.00;;;21.10;45.40;;;;;;5005563;28;20235;-48
2023/01/25 10:41:33;;;;;;;3.05;2.20;;;21.10;45.60;;;;;;5013251;28;20204;-37
2023/01/25 10:46:40;;;;;;;2.25;2.05;;;21.00;45.70;;;;;;5008592;28;20641;-45
2023/01/25 10:49:06;;;;;;;2.10;1.90;;;21.10;45.80;;;;;;4999705;28;20232;-22
2023/01/25 10:51:34;;;;;;;2.40;2.20;;;21.10;45.60;;;;;;4993566;28;20200;-46
2023/01/25 10:54:00;;;;;;;4.32;2.28;;;21.10;45.60;;;;;;4993208;28;20287;-43
2023/01/25 10:56:26;;;;;;;3.15;2.10;;;21.10;46.00;;;;;;5004232;28;20578;-34
2023/01/25 10:58:54;;;;;;;4.05;2.58;;;21.00;45.10;;;;;;5003536;28;20231;-44
2023/01/25 11:01:20;;;;;;;4.82;1.90;;;21.10;45.10;;;;;;5010633;28;20203;-39
2023/01/25 11:03:47;;;;;;;3.50;2.05;;;21.20;45.20;;;;;;5007965;28;20210;-42
2023/01/25 11:06:13;;;;;;;4.45;2.15;;;21.20;45.20;;;;;;5009661;28;20202;-36
2023/01/25 11:08:40;;;;;;;3.13;2.15;;;21.30;45.30;;;;;;5005582;28;20228;-34
2023/01/25 11:11:06;;;;;;;3.50;2.40;;;21.40;44.30;;;;;;5009105;28;20203;-49
2023/01/25 11:13:33;;;;;;;2.17;1.70;;;21.40;44.20;;;;;;5009116;28;20755;-45
2023/01/25 11:16:00;;;;;;;3.38;2.28;;;21.40;45.10;;;;;;4966458;28;20230;-31
2023/01/25 11:18:27;;;;;;;4.30;2.60;;;21.40;45.00;;;;;;5013927;28;20238;-20
2023/01/25 11:20:53;;;;;;;3.20;2.13;;;21.40;45.00;;;;;;5005616;28;20207;-47
2023/01/25 11:23:20;;;;;;;2.83;2.20;;;21.40;44.80;;;;;;5004791;28;20528;-38
2023/01/25 11:25:46;;;;;;;2.70;2.17;;;21.40;44.90;;;;;;5003776;28;20210;-23
2023/01/25 11:28:13;;;;;;;2.22;2.00;;;21.40;44.60;;;;;;5007728;28;20231;-37
2023/01/25 11:30:39;;;;;;;3.47;2.55;;;21.40;44.60;;;;;;5004096;28;20583;-43
2023/01/25 11:33:05;;;;;;;2.67;2.00;;;21.40;44.90;;;;;;5003315;28;20490;-43
2023/01/25 11:35:32;;;;;;;2.63;2.08;;;21.40;44.80;;;;;;5002557;28;20195;-41
2023/01/25 11:37:58;;;;;;;2.22;1.90;;;21.40;45.00;;;;;;5003427;28;20250;-39
2023/01/25 11:40:25;;;;;;;1.98;1.77;;;21.40;44.80;;;;;;5004631;28;20215;-43
2023/01/25 11:42:51;;;;;;;2.38;2.13;;;21.40;45.30;;;;;;5004458;28;20210;-45
2023/01/25 11:45:18;;;;;;;3.53;2.30;;;21.40;45.00;;;;;;5004542;28;20240;-46
2023/01/25 11:47:44;;;;;;;2.67;2.33;;;21.40;45.10;;;;;;5002574;28;20257;-50
2023/01/25 11:50:11;;;;;;;2.55;2.13;;;21.40;45.40;;;;;;4999743;28;20714;-49
2023/01/25 11:52:37;;;;;;;2.05;1.85;;;21.40;45.40;;;;;;5005576;28;20660;-41
2023/01/25 11:55:03;;;;;;;2.83;2.20;;;21.40;45.40;;;;;;5010294;28;20203;-19
2023/01/25 11:57:30;;;;;;;3.53;2.17;;;21.30;45.30;;;;;;5006755;28;20231;-51
2023/01/25 11:59:56;;;;;;;2.05;1.85;;;21.30;45.30;;;;;;5001715;28;20212;-37
2023/01/25 12:02:23;;;;;;;4.22;2.45;;;21.30;45.30;;;;;;5000534;28;20199;-30
2023/01/25 12:04:49;;;;;;;2.20;2.00;;;21.20;45.20;;;;;;5003964;28;20732;-48
2023/01/25 12:07:15;;;;;;;2.78;1.95;;;21.20;45.20;;;;;;4996624;28;20251;-45
2023/01/25 12:09:42;;;;;;;4.93;1.90;;;21.20;45.20;;;;;;5014602;28;20210;-51
2023/01/25 12:12:08;;;;;;;3.08;2.10;;;21.20;45.10;;;;;;5011409;28;20210;-52
2023/01/25 12:14:35;;;;;;;2.90;1.95;;;21.20;45.20;;;;;;5006427;28;20207;-49
2023/01/25 12:17:02;;;;;;;6.80;5.38;;;21.20;44.60;;;;;;5006219;28;20223;-50
2023/01/25 12:19:28;;;;;;;8.48;5.15;;;21.20;44.80;;;;;;5004992;28;20249;-29
2023/01/25 12:21:54;;;;;;;6.60;4.38;;;21.20;44.80;;;;;;4997192;28;20203;-31
2023/01/25 12:24:21;;;;;;;7.30;5.00;;;21.40;44.60;;;;;;4999186;28;20570;-42
2023/01/25 12:26:47;;;;;;;9.57;5.60;;;21.50;44.30;;;;;;5006120;28;20711;-41
2023/01/25 12:29:14;;;;;;;7.38;4.97;;;21.60;44.30;;;;;;5005171;28;20202;-49
2023/01/25 12:31:40;;;;;;;7.32;5.45;;;21.60;44.40;;;;;;5010320;28;20264;-44
2023/01/25 12:34:07;;;;;;;7.45;5.47;;;21.60;44.40;;;;;;5010029;28;20209;-43
2023/01/25 12:36:33;;;;;;;7.88;5.15;;;21.50;44.30;;;;;;5009875;28;20238;-39
2023/01/25 12:38:59;;;;;;;9.55;5.45;;;21.50;44.40;;;;;;5005724;28;20238;-49
2023/01/25 12:41:26;;;;;;;9.10;5.30;;;21.50;44.20;;;;;;5000168;28;20208;-48
2023/01/25 12:43:53;;;;;;;7.80;5.45;;;21.50;44.30;;;;;;5007834;28;20207;-46
2023/01/25 12:46:19;;;;;;;7.22;5.03;;;21.50;44.30;;;;;;5007084;28;20223;-47
2023/01/25 12:48:46;;;;;;;6.90;5.03;;;21.50;44.20;;;;;;5000514;28;20211;-50
2023/01/25 12:51:12;;;;;;;7.43;5.07;;;21.50;44.20;;;;;;5004716;28;20397;-13
2023/01/25 12:53:39;;;;;;;11.02;5.50;;;21.40;44.00;;;;;;4998691;28;20207;-46
2023/01/25 12:56:05;;;;;;;7.18;6.00;;;21.40;44.20;;;;;;5004674;28;20545;-39
2023/01/25 12:58:32;;;;;;;17.95;14.15;;;21.40;44.20;;;;;;5001099;28;20242;-16
2023/01/25 13:00:58;;;;;;;38.75;28.88;;;21.40;44.70;;;;;;5007461;28;20214;-37
2023/01/25 13:03:24;;;;;;;51.83;39.30;;;21.60;45.30;;;;;;5007013;28;20295;-42
2023/01/25 13:05:51;;;;;;;51.03;40.33;;;21.60;45.50;;;;;;4994856;28;20214;-44
2023/01/25 13:08:17;;;;;;;70.03;50.53;;;21.70;45.60;;;;;;4999522;28;20214;-52
2023/01/25 13:10:44;;;;;;;69.53;51.22;;;21.60;46.60;;;;;;5006144;28;20639;-42
2023/01/25 13:13:10;;;;;;;73.15;51.33;;;21.50;46.90;;;;;;5007205;28;20214;-49
2023/01/25 13:15:36;;;;;;;75.38;53.47;;;21.40;47.10;;;;;;5003548;28;20210;-46
2023/01/25 13:18:03;;;;;;;79.68;55.17;;;21.50;47.40;;;;;;5003002;28;20325;-38
2023/01/25 13:20:29;;;;;;;85.63;53.83;;;21.50;47.50;;;;;;5002800;28;20203;-35
2023/01/25 13:22:57;;;;;;;75.00;54.33;;;21.50;47.90;;;;;;5006336;28;20203;-42
2023/01/25 13:25:23;;;;;;;81.32;54.80;;;21.50;48.10;;;;;;5005464;28;20225;-47
2023/01/25 13:27:50;;;;;;;75.93;54.65;;;21.50;48.10;;;;;;5027910;28;20226;-40
2023/01/25 13:30:16;;;;;;;74.57;54.20;;;21.60;48.30;;;;;;4998026;28;20217;-37
2023/01/25 13:32:43;;;;;;;74.18;55.30;;;21.60;48.50;;;;;;5001350;28;20196;-47
2023/01/25 13:35:09;;;;;;;73.30;53.92;;;21.60;48.10;;;;;;5007079;28;20208;-49
2023/01/25 13:37:36;;;;;;;77.95;53.55;;;21.60;48.50;;;;;;5009874;28;20230;-49
2023/01/25 13:40:02;;;;;;;76.63;53.28;;;21.60;48.40;;;;;;5006149;28;20255;-51
2023/01/25 13:42:29;;;;;;;74.20;51.97;;;21.70;48.20;;;;;;5007241;28;20315;-48
2023/01/25 13:44:55;;;;;;;71.75;51.80;;;21.70;48.20;;;;;;5008958;28;20215;-18
2023/01/25 13:47:22;;;;;;;72.93;50.40;;;21.70;48.20;;;;;;5009466;28;20430;-26
2023/01/25 13:49:48;;;;;;;69.50;49.60;;;21.60;47.90;;;;;;5005912;28;20672;-45
2023/01/25 13:52:14;;;;;;;74.20;49.85;;;21.60;48.00;;;;;;5006119;28;20210;-37
2023/01/25 13:54:41;;;;;;;43.25;31.88;;;21.60;48.00;;;;;;5008057;28;20210;-22
2023/01/25 13:57:07;;;;;;;26.20;21.23;;;21.10;38.80;;;;;;5009982;28;20235;-23
2023/01/25 13:59:34;;;;;;;28.08;19.58;;;19.80;33.70;;;;;;5008949;28;20281;-23
2023/01/25 14:02:01;;;;;;;26.05;19.70;;;19.60;36.80;;;;;;5006784;28;20203;-24
2023/01/25 14:04:27;;;;;;;24.45;17.98;;;20.10;37.80;;;;;;5003795;28;20207;-30
2023/01/25 14:06:54;;;;;;;19.23;15.32;;;20.60;43.60;;;;;;5000591;28;20234;-15
2023/01/25 14:09:20;;;;;;;19.48;16.20;;;20.90;38.10;;;;;;5006835;28;20608;-26
2023/01/25 14:11:46;;;;;;;22.23;15.68;;;21.10;37.60;;;;;;5016491;28;20203;-14
2023/01/25 14:14:13;;;;;;;21.85;14.05;;;21.30;37.50;;;;;;5057034;22;20226;-5
2023/01/25 14:16:39;;;;;;;22.00;15.38;;;21.40;37.60;;;;;;5033490;28;20364;-5
2023/01/25 14:19:06;;;;;;;18.40;13.77;;;21.50;37.90;;;;;;5014594;28;20221;-5
2023/01/25 14:21:32;;;;;;;18.23;12.68;;;21.60;38.10;;;;;;5031730;28;20201;-5
2023/01/25 14:23:59;;;;;;;18.23;13.38;;;21.60;38.10;;;;;;5029448;28;20231;-5
2023/01/25 14:26:25;;;;;;;18.80;13.10;;;21.60;38.30;;;;;;5032568;28;20234;-5
2023/01/25 14:28:52;;;;;;;17.30;12.48;;;21.70;38.70;;;;;;5029369;28;20219;-6
2023/01/25 14:31:18;;;;;;;18.38;12.32;;;21.70;38.90;;;;;;5033026;28;20203;-6
2023/01/25 14:33:46;;;;;;;17.42;11.23;;;21.70;39.00;;;;;;5032844;28;20206;-6
2023/01/25 14:36:14;;;;;;;14.18;10.45;;;21.70;39.20;;;;;;5030634;28;20223;-5
2023/01/25 14:38:40;;;;;;;15.88;11.43;;;21.80;39.40;;;;;;5029404;28;20206;-6
2023/01/25 14:41:07;;;;;;;15.60;10.43;;;21.70;39.50;;;;;;5031728;28;20207;-5
2023/01/25 14:43:33;;;;;;;17.10;11.10;;;21.70;39.80;;;;;;5028865;28;20204;-6
2023/01/25 14:45:59;;;;;;;15.95;11.20;;;21.70;40.20;;;;;;5031819;28;20589;-5
2023/01/25 14:48:26;;;;;;;16.95;11.27;;;21.70;40.30;;;;;;5030239;28;20222;-5
2023/01/25 14:50:53;;;;;;;29.55;20.02;;;21.60;40.70;;;;;;5028038;28;20206;-6
2023/01/25 14:53:19;;;;;;;31.95;21.08;;;21.50;40.70;;;;;;5027450;28;20206;-6
2023/01/25 14:55:45;;;;;;;25.25;17.25;;;21.40;41.40;;;;;;5023719;28;20226;-6
2023/01/25 14:58:12;;;;;;;23.60;16.42;;;21.30;41.50;;;;;;5029315;28;20202;-6
2023/01/25 15:00:38;;;;;;;22.67;16.05;;;21.30;41.80;;;;;;5034446;28;20202;-6
2023/01/25 15:03:05;;;;;;;23.45;15.43;;;21.20;41.80;;;;;;5037636;28;20667;-6
2023/01/25 15:05:31;;;;;;;23.23;14.90;;;21.20;42.10;;;;;;5027838;28;20226;-6
2023/01/25 15:07:58;;;;;;;23.02;14.88;;;21.20;42.30;;;;;;5041506;28;20666;-7
2023/01/25 15:10:25;;;;;;;18.00;14.00;;;21.10;42.30;;;;;;5048115;28;20226;-6
2023/01/25 15:12:52;;;;;;;21.30;14.23;;;21.10;42.50;;;;;;5044984;28;20213;-7
2023/01/25 15:15:18;;;;;;;18.60;13.88;;;21.00;42.60;;;;;;5037341;28;20602;-7
2023/01/25 15:17:45;;;;;;;19.95;14.80;;;21.00;42.70;;;;;;5034205;28;20202;-6
2023/01/25 15:20:11;;;;;;;19.45;13.85;;;21.00;42.70;;;;;;5035159;28;20261;-6
2023/01/25 15:22:38;;;;;;;20.45;14.13;;;21.00;42.80;;;;;;5042810;28;20202;-6
2023/01/25 15:25:04;;;;;;;18.23;13.32;;;21.00;42.80;;;;;;5027867;28;20231;-6
2023/01/25 15:27:30;;;;;;;18.40;12.90;;;21.00;42.80;;;;;;5031530;28;20203;-6
2023/01/25 15:29:58;;;;;;;18.27;12.50;;;21.00;42.80;;;;;;5031265;28;20233;-6
2023/01/25 15:32:25;;;;;;;17.27;12.10;;;21.10;42.90;;;;;;5029811;28;20684;-6
2023/01/25 15:34:52;;;;;;;17.23;12.07;;;21.10;42.90;;;;;;5026257;28;20226;-6
2023/01/25 15:37:18;;;;;;;15.90;11.18;;;21.10;42.90;;;;;;5030383;28;20317;-6
2023/01/25 15:39:45;;;;;;;16.65;11.35;;;21.10;42.80;;;;;;5031497;28;20565;-6
2023/01/25 15:42:11;;;;;;;17.02;11.05;;;21.10;42.80;;;;;;5030622;28;20670;-6
2023/01/25 15:44:37;;;;;;;18.13;12.35;;;21.10;42.80;;;;;;5044731;28;20222;-6
2023/01/25 15:47:04;;;;;;;16.48;10.75;;;21.10;42.80;;;;;;5052189;28;20198;-6
2023/01/25 15:49:31;;;;;;;15.80;10.90;;;21.10;42.90;;;;;;5025554;28;20234;-6
2023/01/25 15:51:57;;;;;;;16.80;10.60;;;21.20;43.00;;;;;;5029585;28;20288;-6
2023/01/25 15:54:24;;;;;;;19.60;11.43;;;21.20;42.90;;;;;;5036324;28;20226;-6
2023/01/25 15:56:51;;;;;;;17.05;10.65;;;21.20;42.80;;;;;;5031904;28;20212;-6
2023/01/25 15:59:17;;;;;;;15.00;10.13;;;21.20;42.80;;;;;;5030056;28;20218;-6
2023/01/25 16:01:43;;;;;;;16.20;10.40;;;21.20;43.00;;;;;;5031826;28;20214;-6
2023/01/25 16:04:11;;;;;;;15.85;10.50;;;21.10;43.00;;;;;;5038485;28;20618;-5
2023/01/25 16:06:38;;;;;;;16.70;10.18;;;21.20;43.20;;;;;;5029148;28;20198;-6
2023/01/25 16:09:05;;;;;;;14.77;9.60;;;21.10;43.10;;;;;;5035475;28;20244;-6
2023/01/25 16:11:31;;;;;;;13.85;9.68;;;21.20;43.30;;;;;;5023599;28;20674;-6
2023/01/25 16:13:58;;;;;;;12.60;9.13;;;21.40;42.70;;;;;;5024740;28;20226;-6
2023/01/25 16:16:24;;;;;;;15.25;10.32;;;21.50;42.40;;;;;;5028958;28;20209;-6
2023/01/25 16:18:50;;;;;;;12.52;9.10;;;21.60;42.50;;;;;;5032516;28;20206;-6
2023/01/25 16:21:17;;;;;;;14.23;9.05;;;21.60;42.10;;;;;;5030909;28;20205;-6
2023/01/25 16:23:43;;;;;;;15.43;9.35;;;21.60;42.20;;;;;;5033523;28;20591;-5
2023/01/25 16:26:10;;;;;;;13.25;9.30;;;21.70;42.40;;;;;;5027323;28;20208;-5
2023/01/25 16:28:36;;;;;;;17.70;9.55;;;21.70;42.20;;;;;;5000735;28;20228;-5
2023/01/25 16:31:03;;;;;;;12.27;8.73;;;21.70;45.60;;;;;;5025880;28;20198;-15
2023/01/25 16:33:29;;;;;;;12.45;8.35;;;21.70;45.60;;;;;;5030352;28;20230;-5
2023/01/25 16:35:55;;;;;;;13.00;8.10;;;21.70;45.60;;;;;;5028303;28;20209;-5
2023/01/25 16:38:22;;;;;;;13.00;7.95;;;21.70;45.70;;;;;;5032004;28;20230;-6
2023/01/25 16:40:48;;;;;;;13.35;8.10;;;21.70;45.60;;;;;;5025981;28;20218;-5
2023/01/25 16:43:15;;;;;;;10.45;7.45;;;21.70;45.70;;;;;;5024040;28;20209;-6
2023/01/25 16:45:42;;;;;;;12.63;8.00;;;21.70;45.70;;;;;;5023051;28;20199;-6
2023/01/25 16:48:08;;;;;;;11.85;8.50;;;21.70;45.70;;;;;;5025398;28;20298;-5
2023/01/25 16:50:35;;;;;;;10.93;8.10;;;21.60;46.10;;;;;;5026165;28;20229;-6
2023/01/25 16:53:01;;;;;;;11.70;7.88;;;21.60;46.50;;;;;;5024935;28;20198;-5
2023/01/25 16:55:27;;;;;;;9.52;7.40;;;21.60;46.70;;;;;;5029594;28;20680;-6
2023/01/25 16:57:54;;;;;;;13.27;7.88;;;21.60;47.00;;;;;;5030939;28;20212;-4
2023/01/25 17:00:20;;;;;;;9.50;7.25;;;21.50;48.60;;;;;;5027247;28;20214;-4
2023/01/25 17:02:47;;;;;;;8.77;7.25;;;21.50;41.90;;;;;;5030168;28;20698;-4
2023/01/25 17:05:13;;;;;;;10.07;7.40;;;21.50;41.80;;;;;;5029989;28;20237;-5
2023/01/25 17:07:40;;;;;;;9.55;7.10;;;21.50;41.80;;;;;;5029256;28;20207;-5
2023/01/25 17:10:07;;;;;;;11.30;6.82;;;21.40;41.80;;;;;;5022451;28;20549;-5
2023/01/25 17:12:33;;;;;;;9.15;7.05;;;21.50;42.10;;;;;;5018514;28;20207;-5
2023/01/25 17:14:59;;;;;;;13.15;7.07;;;21.60;42.00;;;;;;5023537;28;20226;-5
2023/01/25 17:17:28;;;;;;;10.80;7.35;;;21.60;41.60;;;;;;5027420;28;20206;-5
2023/01/25 17:19:55;;;;;;;9.85;7.03;;;21.70;41.70;;;;;;5029051;28;20741;-5
2023/01/25 17:22:21;;;;;;;10.60;6.88;;;21.70;41.90;;;;;;5032051;28;20282;-5
2023/01/25 17:24:47;;;;;;;9.13;7.22;;;21.60;41.50;;;;;;5030682;28;20222;-4
2023/01/25 17:27:14;;;;;;;10.23;6.80;;;21.60;42.10;;;;;;5032101;28;20573;-5
2023/01/25 17:29:41;;;;;;;10.15;6.50;;;21.70;41.90;;;;;;4979126;28;20230;-5
2023/01/25 17:32:08;;;;;;;7.75;6.60;;;21.70;41.70;;;;;;5019869;28;20210;-5
